sensor_id;sensor_type;location;lat;lon;timestamp;P1;durP1;ratioP1;P2;durP2;ratioP2
21424;SDS011;10873;51.132;16.848;2023-04-03T00:01:16;5.88;;;3.30;;
21424;SDS011;10873;51.132;16.848;2023-04-03T00:03:43;5.30;;;3.13;;
21424;SDS011;10873;51.132;16.848;2023-04-03T00:06:09;3.78;;;2.75;;
21424;SDS011;10873;51.132;16.848;2023-04-03T00:08:36;4.03;;;2.28;;
21424;SDS011;10873;51.132;16.848;2023-04-03T00:11:03;4.72;;;2.80;;
21424;SDS011;10873;51.132;16.848;2023-04-03T00:13:32;3.17;;;2.30;;
21424;SDS011;10873;51.132;16.848;2023-04-03T00:16:00;4.53;;;2.70;;
21424;SDS011;10873;51.132;16.848;2023-04-03T00:18:28;4.15;;;2.60;;
21424;SDS011;10873;51.132;16.848;2023-04-03T00:20:55;4.55;;;2.42;;
21424;SDS011;10873;51.132;16.848;2023-04-03T00:23:21;4.85;;;2.47;;
21424;SDS011;10873;51.132;16.848;2023-04-03T00:25:49;3.17;;;2.25;;
21424;SDS011;10873;51.132;16.848;2023-04-03T00:28:15;4.80;;;2.50;;
21424;SDS011;10873;51.132;16.848;2023-04-03T00:30:41;4.72;;;2.28;;
21424;SDS011;10873;51.132;16.848;2023-04-03T00:33:08;3.15;;;2.20;;
21424;SDS011;10873;51.132;16.848;2023-04-03T00:35:38;3.97;;;2.33;;
21424;SDS011;10873;51.132;16.848;2023-04-03T00:38:04;4.78;;;2.80;;
21424;SDS011;10873;51.132;16.848;2023-04-03T00:40:33;4.13;;;2.38;;
21424;SDS011;10873;51.132;16.848;2023-04-03T00:43:00;4.32;;;2.40;;
21424;SDS011;10873;51.132;16.848;2023-04-03T00:45:28;3.00;;;2.03;;
21424;SDS011;10873;51.132;16.848;2023-04-03T00:47:57;4.18;;;2.60;;
21424;SDS011;10873;51.132;16.848;2023-04-03T00:50:26;4.50;;;2.53;;
21424;SDS011;10873;51.132;16.848;2023-04-03T00:52:53;3.90;;;2.15;;
21424;SDS011;10873;51.132;16.848;2023-04-03T00:55:20;3.60;;;2.50;;
21424;SDS011;10873;51.132;16.848;2023-04-03T00:57:46;3.90;;;2.35;;
21424;SDS011;10873;51.132;16.848;2023-04-03T01:00:14;5.28;;;2.30;;
21424;SDS011;10873;51.132;16.848;2023-04-03T01:02:43;6.10;;;2.70;;
21424;SDS011;10873;51.132;16.848;2023-04-03T01:08:11;5.40;;;2.75;;
21424;SDS011;10873;51.132;16.848;2023-04-03T01:10:38;4.35;;;2.40;;
21424;SDS011;10873;51.132;16.848;2023-04-03T01:13:16;4.03;;;2.40;;
21424;SDS011;10873;51.132;16.848;2023-04-03T01:15:45;4.00;;;2.30;;
21424;SDS011;10873;51.132;16.848;2023-04-03T01:18:11;4.28;;;2.58;;
21424;SDS011;10873;51.132;16.848;2023-04-03T01:20:43;4.53;;;2.65;;
21424;SDS011;10873;51.132;16.848;2023-04-03T01:23:38;4.20;;;2.50;;
21424;SDS011;10873;51.132;16.848;2023-04-03T01:26:16;3.65;;;2.35;;
21424;SDS011;10873;51.132;16.848;2023-04-03T01:28:43;5.13;;;2.55;;
21424;SDS011;10873;51.132;16.848;2023-04-03T01:31:12;3.83;;;2.38;;
21424;SDS011;10873;51.132;16.848;2023-04-03T01:33:45;4.35;;;2.60;;
21424;SDS011;10873;51.132;16.848;2023-04-03T01:36:13;4.60;;;2.47;;
21424;SDS011;10873;51.132;16.848;2023-04-03T01:38:41;5.15;;;2.40;;
21424;SDS011;10873;51.132;16.848;2023-04-03T01:41:07;4.95;;;2.42;;
21424;SDS011;10873;51.132;16.848;2023-04-03T01:43:33;3.80;;;2.10;;
21424;SDS011;10873;51.132;16.848;2023-04-03T01:45:59;3.38;;;2.00;;
21424;SDS011;10873;51.132;16.848;2023-04-03T01:48:25;4.63;;;2.30;;
21424;SDS011;10873;51.132;16.848;2023-04-03T01:50:53;4.68;;;2.33;;
21424;SDS011;10873;51.132;16.848;2023-04-03T01:53:19;3.75;;;2.10;;
21424;SDS011;10873;51.132;16.848;2023-04-03T01:58:20;4.18;;;2.10;;
21424;SDS011;10873;51.132;16.848;2023-04-03T02:00:47;6.90;;;2.35;;
21424;SDS011;10873;51.132;16.848;2023-04-03T02:03:13;4.20;;;2.30;;
21424;SDS011;10873;51.132;16.848;2023-04-03T02:05:40;3.95;;;2.15;;
21424;SDS011;10873;51.132;16.848;2023-04-03T02:08:07;3.60;;;2.10;;
21424;SDS011;10873;51.132;16.848;2023-04-03T02:10:34;5.93;;;2.25;;
21424;SDS011;10873;51.132;16.848;2023-04-03T02:13:00;4.20;;;2.10;;
21424;SDS011;10873;51.132;16.848;2023-04-03T02:15:26;3.22;;;2.05;;
21424;SDS011;10873;51.132;16.848;2023-04-03T02:17:52;4.53;;;2.38;;
21424;SDS011;10873;51.132;16.848;2023-04-03T02:20:18;2.90;;;1.88;;
21424;SDS011;10873;51.132;16.848;2023-04-03T02:22:44;4.10;;;2.22;;
21424;SDS011;10873;51.132;16.848;2023-04-03T02:25:12;3.80;;;2.00;;
21424;SDS011;10873;51.132;16.848;2023-04-03T02:27:38;4.18;;;2.15;;
21424;SDS011;10873;51.132;16.848;2023-04-03T02:30:05;5.55;;;2.28;;
21424;SDS011;10873;51.132;16.848;2023-04-03T02:32:32;4.88;;;2.30;;
21424;SDS011;10873;51.132;16.848;2023-04-03T02:34:58;3.80;;;2.17;;
21424;SDS011;10873;51.132;16.848;2023-04-03T02:37:24;5.30;;;2.33;;
21424;SDS011;10873;51.132;16.848;2023-04-03T02:39:51;4.03;;;2.20;;
21424;SDS011;10873;51.132;16.848;2023-04-03T02:42:18;2.85;;;1.98;;
21424;SDS011;10873;51.132;16.848;2023-04-03T02:44:44;3.65;;;2.08;;
21424;SDS011;10873;51.132;16.848;2023-04-03T02:47:11;4.07;;;2.13;;
21424;SDS011;10873;51.132;16.848;2023-04-03T02:49:37;3.30;;;1.73;;
21424;SDS011;10873;51.132;16.848;2023-04-03T02:52:03;3.75;;;2.10;;
21424;SDS011;10873;51.132;16.848;2023-04-03T02:54:29;3.72;;;2.08;;
21424;SDS011;10873;51.132;16.848;2023-04-03T02:56:56;4.38;;;2.13;;
21424;SDS011;10873;51.132;16.848;2023-04-03T02:59:24;3.33;;;2.00;;
21424;SDS011;10873;51.132;16.848;2023-04-03T03:01:50;4.85;;;2.10;;
21424;SDS011;10873;51.132;16.848;2023-04-03T03:04:16;4.47;;;2.15;;
21424;SDS011;10873;51.132;16.848;2023-04-03T03:06:42;5.03;;;2.45;;
21424;SDS011;10873;51.132;16.848;2023-04-03T03:09:08;3.20;;;1.90;;
21424;SDS011;10873;51.132;16.848;2023-04-03T03:11:34;3.45;;;1.80;;
21424;SDS011;10873;51.132;16.848;2023-04-03T03:14:00;3.53;;;1.95;;
21424;SDS011;10873;51.132;16.848;2023-04-03T03:16:28;4.15;;;1.98;;
21424;SDS011;10873;51.132;16.848;2023-04-03T03:18:54;3.60;;;2.08;;
21424;SDS011;10873;51.132;16.848;2023-04-03T03:21:20;5.35;;;2.28;;
21424;SDS011;10873;51.132;16.848;2023-04-03T03:23:46;5.22;;;2.10;;
21424;SDS011;10873;51.132;16.848;2023-04-03T03:26:12;3.97;;;2.05;;
21424;SDS011;10873;51.132;16.848;2023-04-03T03:28:38;4.30;;;2.20;;
21424;SDS011;10873;51.132;16.848;2023-04-03T03:31:05;2.78;;;1.88;;
21424;SDS011;10873;51.132;16.848;2023-04-03T03:33:34;4.63;;;1.90;;
21424;SDS011;10873;51.132;16.848;2023-04-03T03:36:00;3.70;;;2.25;;
21424;SDS011;10873;51.132;16.848;2023-04-03T03:38:26;4.55;;;2.45;;
21424;SDS011;10873;51.132;16.848;2023-04-03T03:40:52;5.38;;;2.38;;
21424;SDS011;10873;51.132;16.848;2023-04-03T03:43:18;4.95;;;2.20;;
21424;SDS011;10873;51.132;16.848;2023-04-03T03:45:46;4.60;;;2.17;;
21424;SDS011;10873;51.132;16.848;2023-04-03T03:48:15;3.03;;;1.90;;
21424;SDS011;10873;51.132;16.848;2023-04-03T03:50:42;4.00;;;1.92;;
21424;SDS011;10873;51.132;16.848;2023-04-03T03:53:09;5.63;;;2.45;;
21424;SDS011;10873;51.132;16.848;2023-04-03T03:55:35;3.70;;;2.10;;
21424;SDS011;10873;51.132;16.848;2023-04-03T03:58:01;3.95;;;2.10;;
21424;SDS011;10873;51.132;16.848;2023-04-03T04:00:28;3.47;;;2.10;;
21424;SDS011;10873;51.132;16.848;2023-04-03T04:02:58;3.28;;;1.90;;
21424;SDS011;10873;51.132;16.848;2023-04-03T04:05:24;4.10;;;2.40;;
21424;SDS011;10873;51.132;16.848;2023-04-03T04:07:52;5.85;;;2.20;;
21424;SDS011;10873;51.132;16.848;2023-04-03T04:10:18;4.10;;;2.13;;
21424;SDS011;10873;51.132;16.848;2023-04-03T04:12:44;4.13;;;2.03;;
21424;SDS011;10873;51.132;16.848;2023-04-03T04:15:11;3.97;;;2.10;;
21424;SDS011;10873;51.132;16.848;2023-04-03T04:17:37;3.20;;;2.00;;
21424;SDS011;10873;51.132;16.848;2023-04-03T04:20:04;4.30;;;1.95;;
21424;SDS011;10873;51.132;16.848;2023-04-03T04:22:30;4.18;;;2.00;;
21424;SDS011;10873;51.132;16.848;2023-04-03T04:24:58;3.63;;;2.00;;
21424;SDS011;10873;51.132;16.848;2023-04-03T04:27:24;6.57;;;2.10;;
21424;SDS011;10873;51.132;16.848;2023-04-03T04:29:50;4.10;;;2.42;;
21424;SDS011;10873;51.132;16.848;2023-04-03T04:32:16;4.65;;;1.90;;
21424;SDS011;10873;51.132;16.848;2023-04-03T04:34:42;3.22;;;2.00;;
21424;SDS011;10873;51.132;16.848;2023-04-03T04:37:08;4.10;;;2.20;;
21424;SDS011;10873;51.132;16.848;2023-04-03T04:39:34;5.55;;;2.65;;
21424;SDS011;10873;51.132;16.848;2023-04-03T04:42:02;3.88;;;2.10;;
21424;SDS011;10873;51.132;16.848;2023-04-03T04:44:29;3.90;;;2.38;;
21424;SDS011;10873;51.132;16.848;2023-04-03T04:46:55;4.00;;;1.88;;
21424;SDS011;10873;51.132;16.848;2023-04-03T04:49:21;5.50;;;2.00;;
21424;SDS011;10873;51.132;16.848;2023-04-03T04:51:47;2.80;;;1.90;;
21424;SDS011;10873;51.132;16.848;2023-04-03T04:54:13;5.22;;;2.15;;
21424;SDS011;10873;51.132;16.848;2023-04-03T04:56:40;4.00;;;2.05;;
21424;SDS011;10873;51.132;16.848;2023-04-03T04:59:07;3.55;;;1.73;;
21424;SDS011;10873;51.132;16.848;2023-04-03T05:01:34;3.55;;;1.92;;
21424;SDS011;10873;51.132;16.848;2023-04-03T05:04:01;2.67;;;2.00;;
21424;SDS011;10873;51.132;16.848;2023-04-03T05:06:27;4.05;;;1.90;;
21424;SDS011;10873;51.132;16.848;2023-04-03T05:08:55;3.40;;;2.05;;
21424;SDS011;10873;51.132;16.848;2023-04-03T05:11:21;3.67;;;1.77;;
21424;SDS011;10873;51.132;16.848;2023-04-03T05:13:47;4.22;;;1.80;;
21424;SDS011;10873;51.132;16.848;2023-04-03T05:16:15;3.83;;;1.85;;
21424;SDS011;10873;51.132;16.848;2023-04-03T05:18:41;5.43;;;2.22;;
21424;SDS011;10873;51.132;16.848;2023-04-03T05:21:07;4.50;;;2.17;;
21424;SDS011;10873;51.132;16.848;2023-04-03T05:23:33;3.40;;;1.70;;
21424;SDS011;10873;51.132;16.848;2023-04-03T05:25:59;3.50;;;1.88;;
21424;SDS011;10873;51.132;16.848;2023-04-03T05:28:25;4.25;;;1.80;;
21424;SDS011;10873;51.132;16.848;2023-04-03T05:30:52;3.05;;;1.67;;
21424;SDS011;10873;51.132;16.848;2023-04-03T05:33:22;3.40;;;2.03;;
21424;SDS011;10873;51.132;16.848;2023-04-03T05:35:48;3.88;;;2.05;;
21424;SDS011;10873;51.132;16.848;2023-04-03T05:38:14;4.28;;;2.00;;
21424;SDS011;10873;51.132;16.848;2023-04-03T05:40:41;4.18;;;1.70;;
21424;SDS011;10873;51.132;16.848;2023-04-03T05:43:07;3.85;;;2.10;;
21424;SDS011;10873;51.132;16.848;2023-04-03T05:45:33;4.38;;;1.88;;
21424;SDS011;10873;51.132;16.848;2023-04-03T05:47:59;3.83;;;1.90;;
21424;SDS011;10873;51.132;16.848;2023-04-03T05:50:26;3.83;;;1.90;;
21424;SDS011;10873;51.132;16.848;2023-04-03T05:52:53;3.55;;;1.70;;
21424;SDS011;10873;51.132;16.848;2023-04-03T05:55:22;5.20;;;2.05;;
21424;SDS011;10873;51.132;16.848;2023-04-03T05:57:48;3.03;;;1.80;;
21424;SDS011;10873;51.132;16.848;2023-04-03T06:00:15;4.22;;;1.85;;
21424;SDS011;10873;51.132;16.848;2023-04-03T06:02:42;3.90;;;1.98;;
21424;SDS011;10873;51.132;16.848;2023-04-03T06:05:09;3.58;;;1.85;;
21424;SDS011;10873;51.132;16.848;2023-04-03T06:07:38;3.80;;;1.92;;
21424;SDS011;10873;51.132;16.848;2023-04-03T06:10:04;2.92;;;1.83;;
21424;SDS011;10873;51.132;16.848;2023-04-03T06:12:32;3.28;;;1.90;;
21424;SDS011;10873;51.132;16.848;2023-04-03T06:14:58;4.40;;;2.10;;
21424;SDS011;10873;51.132;16.848;2023-04-03T06:17:24;3.55;;;1.88;;
21424;SDS011;10873;51.132;16.848;2023-04-03T06:19:52;3.05;;;1.83;;
21424;SDS011;10873;51.132;16.848;2023-04-03T06:22:18;3.22;;;2.13;;
21424;SDS011;10873;51.132;16.848;2023-04-03T06:24:46;3.17;;;1.75;;
21424;SDS011;10873;51.132;16.848;2023-04-03T06:27:12;3.92;;;2.20;;
21424;SDS011;10873;51.132;16.848;2023-04-03T06:29:38;3.08;;;1.83;;
21424;SDS011;10873;51.132;16.848;2023-04-03T06:32:05;3.17;;;1.83;;
21424;SDS011;10873;51.132;16.848;2023-04-03T06:34:31;3.45;;;1.83;;
21424;SDS011;10873;51.132;16.848;2023-04-03T06:36:57;3.30;;;2.00;;
21424;SDS011;10873;51.132;16.848;2023-04-03T06:39:24;3.70;;;2.10;;
21424;SDS011;10873;51.132;16.848;2023-04-03T06:41:51;5.20;;;2.10;;
21424;SDS011;10873;51.132;16.848;2023-04-03T06:44:17;4.57;;;1.98;;
21424;SDS011;10873;51.132;16.848;2023-04-03T06:46:44;4.28;;;2.00;;
21424;SDS011;10873;51.132;16.848;2023-04-03T06:49:12;3.70;;;1.80;;
21424;SDS011;10873;51.132;16.848;2023-04-03T06:51:38;3.70;;;2.08;;
21424;SDS011;10873;51.132;16.848;2023-04-03T06:54:05;3.55;;;2.00;;
21424;SDS011;10873;51.132;16.848;2023-04-03T06:56:31;3.40;;;1.80;;
21424;SDS011;10873;51.132;16.848;2023-04-03T06:58:59;2.85;;;1.90;;
21424;SDS011;10873;51.132;16.848;2023-04-03T07:01:26;3.92;;;1.95;;
21424;SDS011;10873;51.132;16.848;2023-04-03T07:03:54;3.08;;;1.98;;
21424;SDS011;10873;51.132;16.848;2023-04-03T07:06:20;4.72;;;2.40;;
21424;SDS011;10873;51.132;16.848;2023-04-03T07:08:47;5.28;;;2.78;;
21424;SDS011;10873;51.132;16.848;2023-04-03T07:11:16;4.97;;;2.67;;
21424;SDS011;10873;51.132;16.848;2023-04-03T07:13:42;5.95;;;3.00;;
21424;SDS011;10873;51.132;16.848;2023-04-03T07:16:09;3.75;;;2.50;;
21424;SDS011;10873;51.132;16.848;2023-04-03T07:18:36;3.22;;;1.98;;
21424;SDS011;10873;51.132;16.848;2023-04-03T07:21:02;3.10;;;2.13;;
21424;SDS011;10873;51.132;16.848;2023-04-03T07:23:29;4.18;;;2.10;;
21424;SDS011;10873;51.132;16.848;2023-04-03T07:25:55;4.97;;;2.15;;
21424;SDS011;10873;51.132;16.848;2023-04-03T07:28:21;5.07;;;2.70;;
21424;SDS011;10873;51.132;16.848;2023-04-03T07:30:48;3.67;;;1.90;;
21424;SDS011;10873;51.132;16.848;2023-04-03T07:33:18;2.45;;;1.73;;
21424;SDS011;10873;51.132;16.848;2023-04-03T07:35:45;5.70;;;2.30;;
21424;SDS011;10873;51.132;16.848;2023-04-03T07:38:11;3.75;;;2.22;;
21424;SDS011;10873;51.132;16.848;2023-04-03T07:40:38;4.05;;;2.30;;
21424;SDS011;10873;51.132;16.848;2023-04-03T07:43:05;4.13;;;2.20;;
21424;SDS011;10873;51.132;16.848;2023-04-03T07:45:31;3.78;;;2.20;;
21424;SDS011;10873;51.132;16.848;2023-04-03T07:48:00;4.28;;;1.90;;
21424;SDS011;10873;51.132;16.848;2023-04-03T07:50:27;4.20;;;2.38;;
21424;SDS011;10873;51.132;16.848;2023-04-03T07:52:54;3.85;;;1.88;;
21424;SDS011;10873;51.132;16.848;2023-04-03T07:55:21;3.85;;;1.90;;
21424;SDS011;10873;51.132;16.848;2023-04-03T07:57:47;4.78;;;2.22;;
21424;SDS011;10873;51.132;16.848;2023-04-03T08:00:14;3.25;;;1.83;;
21424;SDS011;10873;51.132;16.848;2023-04-03T08:02:43;3.88;;;2.10;;
21424;SDS011;10873;51.132;16.848;2023-04-03T08:05:10;3.70;;;2.20;;
21424;SDS011;10873;51.132;16.848;2023-04-03T08:07:38;3.50;;;2.03;;
21424;SDS011;10873;51.132;16.848;2023-04-03T08:10:04;2.85;;;2.47;;
21424;SDS011;10873;51.132;16.848;2023-04-03T08:12:31;4.10;;;2.00;;
21424;SDS011;10873;51.132;16.848;2023-04-03T08:14:59;4.63;;;2.33;;
21424;SDS011;10873;51.132;16.848;2023-04-03T08:17:26;3.67;;;2.10;;
21424;SDS011;10873;51.132;16.848;2023-04-03T08:19:52;3.97;;;2.13;;
21424;SDS011;10873;51.132;16.848;2023-04-03T08:22:18;3.35;;;1.83;;
21424;SDS011;10873;51.132;16.848;2023-04-03T08:24:46;3.50;;;2.00;;
21424;SDS011;10873;51.132;16.848;2023-04-03T08:27:12;3.95;;;2.10;;
21424;SDS011;10873;51.132;16.848;2023-04-03T08:29:38;3.47;;;1.90;;
21424;SDS011;10873;51.132;16.848;2023-04-03T08:32:05;2.95;;;1.90;;
21424;SDS011;10873;51.132;16.848;2023-04-03T08:34:31;3.28;;;1.95;;
21424;SDS011;10873;51.132;16.848;2023-04-03T08:37:00;4.95;;;2.05;;
21424;SDS011;10873;51.132;16.848;2023-04-03T08:39:26;4.20;;;2.05;;
21424;SDS011;10873;51.132;16.848;2023-04-03T08:41:54;4.25;;;1.95;;
21424;SDS011;10873;51.132;16.848;2023-04-03T08:44:24;4.43;;;2.00;;
21424;SDS011;10873;51.132;16.848;2023-04-03T08:47:04;5.70;;;1.92;;
21424;SDS011;10873;51.132;16.848;2023-04-03T08:49:37;2.67;;;1.60;;
21424;SDS011;10873;51.132;16.848;2023-04-03T08:52:13;3.83;;;1.67;;
21424;SDS011;10873;51.132;16.848;2023-04-03T08:54:48;4.47;;;2.10;;
21424;SDS011;10873;51.132;16.848;2023-04-03T08:57:17;3.75;;;2.00;;
21424;SDS011;10873;51.132;16.848;2023-04-03T08:59:51;4.57;;;1.92;;
21424;SDS011;10873;51.132;16.848;2023-04-03T09:02:22;2.17;;;1.60;;
21424;SDS011;10873;51.132;16.848;2023-04-03T09:04:52;1.88;;;1.55;;
21424;SDS011;10873;51.132;16.848;2023-04-03T09:07:20;2.38;;;1.60;;
21424;SDS011;10873;51.132;16.848;2023-04-03T09:09:50;4.38;;;1.67;;
21424;SDS011;10873;51.132;16.848;2023-04-03T09:12:21;4.85;;;1.73;;
21424;SDS011;10873;51.132;16.848;2023-04-03T09:14:54;3.45;;;1.85;;
21424;SDS011;10873;51.132;16.848;2023-04-03T09:17:31;3.08;;;1.60;;
21424;SDS011;10873;51.132;16.848;2023-04-03T09:20:09;2.85;;;1.50;;
21424;SDS011;10873;51.132;16.848;2023-04-03T09:22:43;5.25;;;1.50;;
21424;SDS011;10873;51.132;16.848;2023-04-03T09:25:10;2.90;;;1.50;;
21424;SDS011;10873;51.132;16.848;2023-04-03T09:27:41;2.65;;;1.73;;
21424;SDS011;10873;51.132;16.848;2023-04-03T09:30:08;2.60;;;1.90;;
21424;SDS011;10873;51.132;16.848;2023-04-03T09:32:39;1.50;;;1.40;;
21424;SDS011;10873;51.132;16.848;2023-04-03T09:35:10;3.72;;;1.48;;
21424;SDS011;10873;51.132;16.848;2023-04-03T09:37:45;2.38;;;1.60;;
21424;SDS011;10873;51.132;16.848;2023-04-03T09:40:32;3.88;;;1.40;;
21424;SDS011;10873;51.132;16.848;2023-04-03T09:43:02;2.88;;;1.63;;
21424;SDS011;10873;51.132;16.848;2023-04-03T09:45:45;2.88;;;1.60;;
21424;SDS011;10873;51.132;16.848;2023-04-03T09:48:15;3.05;;;1.50;;
21424;SDS011;10873;51.132;16.848;2023-04-03T09:50:53;2.88;;;1.48;;
21424;SDS011;10873;51.132;16.848;2023-04-03T09:53:31;2.97;;;1.50;;
21424;SDS011;10873;51.132;16.848;2023-04-03T09:56:00;3.05;;;1.50;;
21424;SDS011;10873;51.132;16.848;2023-04-03T09:58:31;2.33;;;1.60;;
21424;SDS011;10873;51.132;16.848;2023-04-03T10:00:59;2.00;;;1.50;;
21424;SDS011;10873;51.132;16.848;2023-04-03T10:03:28;2.75;;;1.65;;
21424;SDS011;10873;51.132;16.848;2023-04-03T10:05:56;3.05;;;1.90;;
21424;SDS011;10873;51.132;16.848;2023-04-03T10:08:25;2.55;;;1.60;;
21424;SDS011;10873;51.132;16.848;2023-04-03T10:11:09;4.72;;;1.65;;
21424;SDS011;10873;51.132;16.848;2023-04-03T10:13:50;2.33;;;1.48;;
21424;SDS011;10873;51.132;16.848;2023-04-03T10:16:17;3.85;;;1.80;;
21424;SDS011;10873;51.132;16.848;2023-04-03T10:18:46;2.22;;;1.60;;
21424;SDS011;10873;51.132;16.848;2023-04-03T10:21:19;2.83;;;1.75;;
21424;SDS011;10873;51.132;16.848;2023-04-03T10:24:00;3.40;;;2.10;;
21424;SDS011;10873;51.132;16.848;2023-04-03T10:26:36;2.08;;;1.63;;
21424;SDS011;10873;51.132;16.848;2023-04-03T10:29:11;3.22;;;1.77;;
21424;SDS011;10873;51.132;16.848;2023-04-03T10:31:50;3.05;;;1.90;;
21424;SDS011;10873;51.132;16.848;2023-04-03T10:34:23;2.80;;;1.70;;
21424;SDS011;10873;51.132;16.848;2023-04-03T10:36:54;1.85;;;1.52;;
21424;SDS011;10873;51.132;16.848;2023-04-03T10:39:27;4.90;;;1.70;;
21424;SDS011;10873;51.132;16.848;2023-04-03T10:42:02;3.33;;;1.77;;
21424;SDS011;10873;51.132;16.848;2023-04-03T10:44:36;2.33;;;1.80;;
21424;SDS011;10873;51.132;16.848;2023-04-03T10:47:08;3.00;;;1.80;;
21424;SDS011;10873;51.132;16.848;2023-04-03T10:49:44;3.47;;;1.92;;
21424;SDS011;10873;51.132;16.848;2023-04-03T10:52:22;2.10;;;1.60;;
21424;SDS011;10873;51.132;16.848;2023-04-03T10:54:56;3.08;;;1.52;;
21424;SDS011;10873;51.132;16.848;2023-04-03T10:57:27;2.42;;;1.40;;
21424;SDS011;10873;51.132;16.848;2023-04-03T10:59:56;2.30;;;1.48;;
21424;SDS011;10873;51.132;16.848;2023-04-03T11:02:27;2.10;;;1.60;;
21424;SDS011;10873;51.132;16.848;2023-04-03T11:04:58;2.25;;;1.70;;
21424;SDS011;10873;51.132;16.848;2023-04-03T11:07:26;4.22;;;1.60;;
21424;SDS011;10873;51.132;16.848;2023-04-03T11:09:57;3.05;;;1.80;;
21424;SDS011;10873;51.132;16.848;2023-04-03T11:12:28;6.22;;;1.90;;
21424;SDS011;10873;51.132;16.848;2023-04-03T11:15:03;2.80;;;1.42;;
21424;SDS011;10873;51.132;16.848;2023-04-03T11:17:33;2.95;;;1.85;;
21424;SDS011;10873;51.132;16.848;2023-04-03T11:20:04;2.08;;;1.42;;
21424;SDS011;10873;51.132;16.848;2023-04-03T11:22:36;2.05;;;1.55;;
21424;SDS011;10873;51.132;16.848;2023-04-03T11:25:08;3.15;;;1.75;;
21424;SDS011;10873;51.132;16.848;2023-04-03T11:27:46;3.92;;;1.80;;
21424;SDS011;10873;51.132;16.848;2023-04-03T11:30:19;1.45;;;1.30;;
21424;SDS011;10873;51.132;16.848;2023-04-03T11:32:57;2.85;;;1.90;;
21424;SDS011;10873;51.132;16.848;2023-04-03T11:35:43;4.32;;;1.63;;
21424;SDS011;10873;51.132;16.848;2023-04-03T11:38:13;2.78;;;1.60;;
21424;SDS011;10873;51.132;16.848;2023-04-03T11:40:45;3.45;;;1.77;;
21424;SDS011;10873;51.132;16.848;2023-04-03T11:43:18;4.00;;;1.48;;
21424;SDS011;10873;51.132;16.848;2023-04-03T11:45:53;2.35;;;1.50;;
21424;SDS011;10873;51.132;16.848;2023-04-03T11:48:44;1.95;;;1.50;;
21424;SDS011;10873;51.132;16.848;2023-04-03T11:51:38;2.65;;;1.40;;
21424;SDS011;10873;51.132;16.848;2023-04-03T12:03:31;1.77;;;1.38;;
21424;SDS011;10873;51.132;16.848;2023-04-03T12:09:24;2.35;;;1.77;;
21424;SDS011;10873;51.132;16.848;2023-04-03T12:11:59;4.18;;;1.70;;
21424;SDS011;10873;51.132;16.848;2023-04-03T12:14:46;3.05;;;1.92;;
21424;SDS011;10873;51.132;16.848;2023-04-03T12:17:16;3.45;;;1.70;;
21424;SDS011;10873;51.132;16.848;2023-04-03T12:19:49;2.00;;;1.60;;
21424;SDS011;10873;51.132;16.848;2023-04-03T12:22:16;2.42;;;1.77;;
21424;SDS011;10873;51.132;16.848;2023-04-03T12:24:47;2.75;;;1.73;;
21424;SDS011;10873;51.132;16.848;2023-04-03T12:27:20;5.72;;;1.77;;
21424;SDS011;10873;51.132;16.848;2023-04-03T12:30:04;2.78;;;1.65;;
21424;SDS011;10873;51.132;16.848;2023-04-03T12:32:41;3.33;;;1.75;;
21424;SDS011;10873;51.132;16.848;2023-04-03T12:35:23;3.22;;;1.63;;
21424;SDS011;10873;51.132;16.848;2023-04-03T12:38:02;3.88;;;1.80;;
21424;SDS011;10873;51.132;16.848;2023-04-03T12:41:11;4.05;;;2.03;;
21424;SDS011;10873;51.132;16.848;2023-04-03T12:43:49;2.42;;;1.80;;
21424;SDS011;10873;51.132;16.848;2023-04-03T12:46:28;3.22;;;1.55;;
21424;SDS011;10873;51.132;16.848;2023-04-03T12:49:05;4.03;;;1.80;;
21424;SDS011;10873;51.132;16.848;2023-04-03T12:51:45;2.60;;;1.75;;
21424;SDS011;10873;51.132;16.848;2023-04-03T12:54:13;5.15;;;1.83;;
21424;SDS011;10873;51.132;16.848;2023-04-03T12:56:41;14.18;;;3.90;;
21424;SDS011;10873;51.132;16.848;2023-04-03T12:59:14;10.27;;;2.88;;
21424;SDS011;10873;51.132;16.848;2023-04-03T13:01:42;10.88;;;3.08;;
21424;SDS011;10873;51.132;16.848;2023-04-03T13:04:10;5.25;;;3.05;;
21424;SDS011;10873;51.132;16.848;2023-04-03T13:06:38;5.22;;;2.45;;
21424;SDS011;10873;51.132;16.848;2023-04-03T13:09:16;5.65;;;2.55;;
21424;SDS011;10873;51.132;16.848;2023-04-03T13:11:47;6.03;;;2.35;;
21424;SDS011;10873;51.132;16.848;2023-04-03T13:14:15;4.90;;;2.47;;
21424;SDS011;10873;51.132;16.848;2023-04-03T13:16:52;4.35;;;2.53;;
21424;SDS011;10873;51.132;16.848;2023-04-03T13:19:18;4.40;;;2.45;;
21424;SDS011;10873;51.132;16.848;2023-04-03T13:21:45;7.57;;;2.67;;
21424;SDS011;10873;51.132;16.848;2023-04-03T13:24:13;4.47;;;2.70;;
21424;SDS011;10873;51.132;16.848;2023-04-03T13:26:39;5.93;;;2.35;;
21424;SDS011;10873;51.132;16.848;2023-04-03T13:29:06;4.15;;;2.60;;
21424;SDS011;10873;51.132;16.848;2023-04-03T13:31:42;3.65;;;2.28;;
21424;SDS011;10873;51.132;16.848;2023-04-03T13:34:10;3.03;;;2.17;;
21424;SDS011;10873;51.132;16.848;2023-04-03T13:36:39;3.47;;;2.10;;
21424;SDS011;10873;51.132;16.848;2023-04-03T13:39:06;4.10;;;2.35;;
21424;SDS011;10873;51.132;16.848;2023-04-03T13:41:49;3.47;;;2.35;;
21424;SDS011;10873;51.132;16.848;2023-04-03T13:44:17;5.32;;;2.25;;
21424;SDS011;10873;51.132;16.848;2023-04-03T13:46:50;3.33;;;2.40;;
21424;SDS011;10873;51.132;16.848;2023-04-03T13:49:19;4.03;;;2.42;;
21424;SDS011;10873;51.132;16.848;2023-04-03T13:51:46;4.97;;;2.90;;
21424;SDS011;10873;51.132;16.848;2023-04-03T13:54:16;3.97;;;2.80;;
21424;SDS011;10873;51.132;16.848;2023-04-03T13:56:46;4.45;;;2.38;;
21424;SDS011;10873;51.132;16.848;2023-04-03T13:59:22;3.38;;;2.45;;
21424;SDS011;10873;51.132;16.848;2023-04-03T14:01:51;5.20;;;2.28;;
21424;SDS011;10873;51.132;16.848;2023-04-03T14:04:19;3.90;;;2.30;;
21424;SDS011;10873;51.132;16.848;2023-04-03T14:06:47;6.30;;;2.40;;
21424;SDS011;10873;51.132;16.848;2023-04-03T14:09:14;3.53;;;2.20;;
21424;SDS011;10873;51.132;16.848;2023-04-03T14:11:41;4.40;;;2.47;;
21424;SDS011;10873;51.132;16.848;2023-04-03T14:14:11;8.10;;;2.45;;
21424;SDS011;10873;51.132;16.848;2023-04-03T14:16:41;6.90;;;2.47;;
21424;SDS011;10873;51.132;16.848;2023-04-03T14:19:11;3.72;;;2.50;;
21424;SDS011;10873;51.132;16.848;2023-04-03T14:21:44;5.93;;;2.53;;
21424;SDS011;10873;51.132;16.848;2023-04-03T14:24:10;6.28;;;2.80;;
21424;SDS011;10873;51.132;16.848;2023-04-03T14:26:36;4.53;;;2.72;;
21424;SDS011;10873;51.132;16.848;2023-04-03T14:29:03;6.65;;;2.45;;
21424;SDS011;10873;51.132;16.848;2023-04-03T14:31:30;4.68;;;2.63;;
21424;SDS011;10873;51.132;16.848;2023-04-03T14:33:56;4.03;;;2.78;;
21424;SDS011;10873;51.132;16.848;2023-04-03T14:36:23;4.20;;;2.65;;
21424;SDS011;10873;51.132;16.848;2023-04-03T14:38:51;4.43;;;2.92;;
21424;SDS011;10873;51.132;16.848;2023-04-03T14:41:19;6.22;;;3.03;;
21424;SDS011;10873;51.132;16.848;2023-04-03T14:43:47;4.25;;;2.60;;
21424;SDS011;10873;51.132;16.848;2023-04-03T14:46:15;5.07;;;2.72;;
21424;SDS011;10873;51.132;16.848;2023-04-03T14:48:44;3.40;;;2.45;;
21424;SDS011;10873;51.132;16.848;2023-04-03T14:51:11;4.57;;;2.53;;
21424;SDS011;10873;51.132;16.848;2023-04-03T14:53:38;5.47;;;2.55;;
21424;SDS011;10873;51.132;16.848;2023-04-03T14:56:10;5.90;;;2.90;;
21424;SDS011;10873;51.132;16.848;2023-04-03T14:58:37;3.92;;;2.70;;
21424;SDS011;10873;51.132;16.848;2023-04-03T15:01:03;3.40;;;2.70;;
21424;SDS011;10873;51.132;16.848;2023-04-03T15:03:29;3.83;;;2.38;;